createdAt,value
2023-05-05T00:00:19.446Z,100634.05
2023-05-05T00:01:21.638Z,100638.41
2023-05-05T00:02:23.857Z,100634.05
2023-05-05T00:03:26.823Z,100634.19
2023-05-05T00:04:29.039Z,100631.53
2023-05-05T00:05:31.187Z,100632.33
2023-05-05T00:06:33.338Z,100630.80
2023-05-05T00:07:35.510Z,100631.95
2023-05-05T00:08:38.355Z,100621.48
2023-05-05T00:09:42.579Z,100617.09
2023-05-05T00:10:46.284Z,100626.95
2023-05-05T00:11:48.824Z,100623.70
2023-05-05T00:12:50.996Z,100629.95
2023-05-05T00:13:53.256Z,100626.43
2023-05-05T00:14:55.452Z,100621.11
2023-05-05T00:15:57.625Z,100623.08
2023-05-05T00:16:59.897Z,100621.28
2023-05-05T00:18:02.187Z,100624.94
2023-05-05T00:19:04.527Z,100625.01
2023-05-05T00:20:08.380Z,100624.94
2023-05-05T00:21:11.103Z,100620.48
2023-05-05T00:22:13.225Z,100614.23
2023-05-05T00:23:17.301Z,100622.21
2023-05-05T00:24:19.695Z,100620.55
2023-05-05T00:25:21.863Z,100627.73
2023-05-05T00:26:24.462Z,100635.00
2023-05-05T00:27:27.153Z,100635.72
2023-05-05T00:28:29.483Z,100637.52
2023-05-05T00:29:32.171Z,100640.11
2023-05-05T00:30:34.591Z,100634.79
2023-05-05T00:31:36.879Z,100640.05
2023-05-05T00:32:39.630Z,100634.79
2023-05-05T00:33:41.979Z,100633.92
2023-05-05T00:34:44.647Z,100639.25
2023-05-05T00:35:47.289Z,100627.81
2023-05-05T00:36:49.801Z,100629.67
2023-05-05T00:37:52.172Z,100641.98
2023-05-05T00:38:54.298Z,100634.92
2023-05-05T00:39:56.485Z,100635.79
2023-05-05T00:40:59.780Z,100644.64
2023-05-05T00:42:02.120Z,100641.18
2023-05-05T00:43:04.265Z,100641.11
2023-05-05T00:44:06.831Z,100648.37
2023-05-05T00:45:14.492Z,100641.25
2023-05-05T00:46:25.854Z,100643.34
2023-05-05T00:47:28.427Z,100645.88
2023-05-05T00:48:31.738Z,100650.47
2023-05-05T00:49:36.701Z,100651.53
2023-05-05T00:50:39.628Z,100652.40
2023-05-05T00:51:41.939Z,100654.33
2023-05-05T00:52:44.197Z,100653.39
2023-05-05T00:53:47.510Z,100651.60
2023-05-05T00:54:49.820Z,100651.67
2023-05-05T00:55:52.206Z,100648.88
2023-05-05T00:56:54.349Z,100652.33
2023-05-05T00:57:57.720Z,100652.47
2023-05-05T00:59:01.734Z,100651.67
2023-05-05T01:00:04.802Z,100649.01
2023-05-05T01:01:09.077Z,100646.28
2023-05-05T01:02:11.261Z,100643.92
2023-05-05T01:03:13.435Z,100646.58
2023-05-05T01:04:15.624Z,100646.72
2023-05-05T01:05:20.829Z,100643.13
2023-05-05T01:06:45.079Z,100643.82
2023-05-05T01:07:59.976Z,100642.27
2023-05-05T01:09:17.643Z,100646.72
2023-05-05T01:10:35.600Z,100637.88
2023-05-05T01:11:56.660Z,100644.92
2023-05-05T01:13:14.448Z,100645.12
2023-05-05T01:14:20.400Z,100642.39
2023-05-05T01:15:35.353Z,100643.27
2023-05-05T01:16:41.310Z,100642.53
2023-05-05T01:19:11.509Z,100646.84
2023-05-05T01:20:23.551Z,100644.95
2023-05-05T01:21:38.964Z,100646.61
2023-05-05T01:24:30.367Z,100642.66
2023-05-05T01:25:54.597Z,100646.97
2023-05-05T01:27:34.669Z,100654.72
2023-05-05T01:28:43.492Z,100642.42
2023-05-05T01:30:12.110Z,100645.08
2023-05-05T01:31:43.783Z,100639.77
2023-05-05T01:32:49.671Z,100647.10
2023-05-05T01:33:56.553Z,100644.37
2023-05-05T01:35:05.542Z,100648.83
2023-05-05T01:36:11.963Z,100647.10
2023-05-05T01:37:23.530Z,100646.30
2023-05-05T01:38:29.010Z,100642.05
2023-05-05T01:39:34.462Z,100650.82
2023-05-05T01:40:40.603Z,100643.77
2023-05-05T01:41:48.885Z,100652.67
2023-05-05T01:42:53.777Z,100643.77
2023-05-05T01:43:58.975Z,100639.45
2023-05-05T01:45:04.059Z,100641.31
2023-05-05T01:46:08.712Z,100639.58
2023-05-05T01:47:20.372Z,100643.20
2023-05-05T01:48:24.385Z,100643.27
2023-05-05T01:49:27.994Z,100642.47
2023-05-05T01:50:31.373Z,100639.88
2023-05-05T01:51:34.870Z,100641.53
2023-05-05T01:52:39.797Z,100642.41
2023-05-05T01:53:43.401Z,100638.88
2023-05-05T01:54:47.264Z,100642.34
2023-05-05T01:55:51.716Z,100638.72
2023-05-05T01:56:56.579Z,100639.52
2023-05-05T01:58:01.816Z,100638.72
2023-05-05T01:59:05.317Z,100650.15
2023-05-05T02:00:10.211Z,100648.23
2023-05-05T02:02:36.013Z,100636.17
2023-05-05T02:03:41.277Z,100639.58
2023-05-05T02:04:45.089Z,100645.50
2023-05-05T02:05:49.001Z,100642.78
2023-05-05T02:06:52.747Z,100642.59
2023-05-05T02:07:57.802Z,100644.09
2023-05-05T02:09:01.750Z,100650.27
2023-05-05T02:10:06.830Z,100644.16
2023-05-05T02:11:11.684Z,100644.31
2023-05-05T02:12:15.825Z,100637.40
2023-05-05T02:13:21.741Z,100643.64
2023-05-05T02:15:38.056Z,100643.22
2023-05-05T02:16:41.898Z,100651.08
2023-05-05T02:17:45.848Z,100643.97
2023-05-05T02:18:49.517Z,100645.63
2023-05-05T02:19:52.537Z,100648.16
2023-05-05T02:20:54.848Z,100646.30
2023-05-05T02:21:57.174Z,100650.69
2023-05-05T02:22:59.610Z,100647.10
2023-05-05T02:24:02.668Z,100654.28
2023-05-05T02:25:06.040Z,100649.95
2023-05-05T02:26:11.584Z,100646.37
2023-05-05T02:27:17.210Z,100648.30
2023-05-05T02:28:29.064Z,100658.00
2023-05-05T02:29:37.992Z,100654.28
2023-05-05T02:30:42.464Z,100654.28
2023-05-05T02:31:49.794Z,100648.96
2023-05-05T02:32:57.564Z,100655.88
2023-05-05T02:34:03.984Z,100655.02
2023-05-05T02:36:32.000Z,100647.11
2023-05-05T02:37:37.926Z,100651.42
2023-05-05T02:38:42.440Z,100661.03
2023-05-05T02:39:53.707Z,100660.77
2023-05-05T02:40:58.616Z,100657.98
2023-05-05T02:42:03.426Z,100654.33
2023-05-05T02:43:11.385Z,100655.19
2023-05-05T02:44:16.518Z,100659.91
2023-05-05T02:45:21.764Z,100644.95
2023-05-05T02:46:24.346Z,100658.98
2023-05-05T02:47:34.632Z,100652.86
2023-05-05T02:48:37.094Z,100651.06
2023-05-05T02:49:39.924Z,100650.39
2023-05-05T02:50:42.190Z,100646.11
2023-05-05T02:51:49.728Z,100652.29
2023-05-05T02:52:54.137Z,100637.17
2023-05-05T02:53:56.714Z,100639.63
2023-05-05T02:55:00.828Z,100636.24
2023-05-05T02:56:17.646Z,100648.41
2023-05-05T02:57:25.281Z,100643.95
2023-05-05T02:58:33.104Z,100635.91
2023-05-05T02:59:48.032Z,100639.38
2023-05-05T03:01:08.085Z,100639.38
2023-05-05T03:03:29.315Z,100635.22
2023-05-05T03:07:14.771Z,100636.21
2023-05-05T03:09:46.919Z,100638.80
2023-05-05T03:11:08.871Z,100639.50
2023-05-05T03:12:16.025Z,100638.50
2023-05-05T03:13:26.267Z,100646.25
2023-05-05T03:14:33.354Z,100646.25
2023-05-05T03:15:39.719Z,100648.21
2023-05-05T03:16:44.648Z,100646.61
2023-05-05T03:17:51.171Z,100647.41
2023-05-05T03:18:54.597Z,100650.00
2023-05-05T03:19:56.993Z,100644.69
2023-05-05T03:21:00.976Z,100643.69
2023-05-05T03:22:04.394Z,100646.42
2023-05-05T03:23:07.606Z,100649.88
2023-05-05T03:24:18.724Z,100651.57
2023-05-05T03:25:24.616Z,100652.53
2023-05-05T03:26:27.047Z,100655.09
2023-05-05T03:27:29.534Z,100655.19
2023-05-05T03:28:31.786Z,100656.31
2023-05-05T03:29:35.865Z,100661.64
2023-05-05T03:30:39.186Z,100652.80
2023-05-05T03:31:41.895Z,100661.70
2023-05-05T03:32:44.210Z,100666.09
2023-05-05T03:33:46.281Z,100666.83
2023-05-05T03:34:48.365Z,100668.69
2023-05-05T03:35:50.535Z,100666.16
2023-05-05T03:36:53.242Z,100673.56
2023-05-05T03:37:55.493Z,100668.38
2023-05-05T03:38:58.226Z,100664.05
2023-05-05T03:40:01.451Z,100664.84
2023-05-05T03:41:03.974Z,100668.50
2023-05-05T03:42:06.994Z,100668.63
2023-05-05T03:43:10.238Z,100668.63
2023-05-05T03:44:13.029Z,100665.23
2023-05-05T03:45:15.326Z,100663.59
2023-05-05T03:46:17.603Z,100664.53
2023-05-05T03:47:19.966Z,100664.53
2023-05-05T03:48:22.302Z,100657.26
2023-05-05T03:49:24.989Z,100664.30
2023-05-05T03:50:27.659Z,100662.64
2023-05-05T03:51:30.482Z,100667.03
2023-05-05T03:52:33.527Z,100662.73
2023-05-05T03:53:36.951Z,100664.47
2023-05-05T03:54:40.763Z,100662.86
2023-05-05T03:55:42.936Z,100660.27
2023-05-05T03:56:46.240Z,100660.52
2023-05-05T03:57:48.847Z,100658.80
2023-05-05T03:58:50.880Z,100658.80
2023-05-05T03:59:53.430Z,100658.89
2023-05-05T04:00:56.928Z,100658.02
2023-05-05T04:01:59.934Z,100663.41
2023-05-05T04:03:02.317Z,100664.39
2023-05-05T04:04:04.794Z,100663.59
2023-05-05T04:05:07.367Z,100675.27
2023-05-05T04:06:09.675Z,100664.64
2023-05-05T04:07:11.835Z,100664.64
2023-05-05T04:08:14.936Z,100673.41
2023-05-05T04:09:17.249Z,100669.83
2023-05-05T04:10:20.487Z,100667.85
2023-05-05T04:11:23.800Z,100680.21
2023-05-05T04:12:26.245Z,100674.73
2023-05-05T04:13:29.123Z,100682.65
2023-05-05T04:14:31.397Z,100675.54
2023-05-05T04:15:33.673Z,100678.07
2023-05-05T04:16:36.513Z,100680.80
2023-05-05T04:17:38.846Z,100679.92
2023-05-05T04:18:41.297Z,100685.24
2023-05-05T04:19:43.564Z,100682.45
2023-05-05T04:20:47.192Z,100679.00
2023-05-05T04:21:49.906Z,100676.41
2023-05-05T04:22:52.874Z,100678.94
2023-05-05T04:23:56.217Z,100679.80
2023-05-05T04:24:58.671Z,100678.88
2023-05-05T04:26:01.144Z,100675.22
2023-05-05T04:27:03.577Z,100671.77
2023-05-05T04:28:06.039Z,100672.62
2023-05-05T04:29:08.632Z,100663.85
2023-05-05T04:30:11.405Z,100659.47
2023-05-05T04:31:13.876Z,100659.59
2023-05-05T04:32:16.972Z,100657.06
2023-05-05T04:33:19.218Z,100662.47
2023-05-05T04:34:22.461Z,100662.53
2023-05-05T04:35:25.124Z,100667.05
2023-05-05T04:36:27.899Z,100666.25
2023-05-05T04:37:30.610Z,100667.30
2023-05-05T04:38:33.708Z,100671.81
2023-05-05T04:39:36.567Z,100675.39
2023-05-05T04:40:39.663Z,100687.91
2023-05-05T04:41:42.410Z,100693.34
2023-05-05T04:42:44.665Z,100695.20
2023-05-05T04:43:47.838Z,100699.52
2023-05-05T04:44:50.181Z,100695.88
2023-05-05T04:45:53.892Z,100696.64
2023-05-05T04:46:57.246Z,100698.37
2023-05-05T04:48:00.539Z,100693.81
2023-05-05T04:49:03.230Z,100692.81
2023-05-05T04:50:07.731Z,100703.45
2023-05-05T04:51:10.372Z,100695.23
2023-05-05T04:52:12.721Z,100692.57
2023-05-05T04:53:14.988Z,100696.92
2023-05-05T04:54:17.222Z,100704.06
2023-05-05T04:55:19.579Z,100697.73
2023-05-05T04:56:21.827Z,100700.39
2023-05-05T04:57:24.114Z,100703.20
2023-05-05T04:58:26.257Z,100706.56
2023-05-05T04:59:28.209Z,100707.38
2023-05-05T05:00:30.645Z,100708.30
2023-05-05T05:01:35.171Z,100709.09
2023-05-05T05:02:39.619Z,100704.59
2023-05-05T05:03:43.029Z,100700.08
2023-05-05T05:04:45.253Z,100704.52
2023-05-05T05:05:47.435Z,100706.38
2023-05-05T05:06:49.664Z,100707.38
2023-05-05T05:07:52.189Z,100707.25
2023-05-05T05:08:54.558Z,100700.39
2023-05-05T05:09:57.079Z,100700.20
2023-05-05T05:11:00.121Z,100700.27
2023-05-05T05:12:03.491Z,100700.27
2023-05-05T05:13:05.906Z,100702.80
2023-05-05T05:14:08.246Z,100700.02
2023-05-05T05:15:12.316Z,100697.35
2023-05-05T05:16:15.113Z,100706.25
2023-05-05T05:17:19.504Z,100704.24
2023-05-05T05:18:22.022Z,100704.40
2023-05-05T05:19:24.692Z,100705.17
2023-05-05T05:20:26.927Z,100715.61
2023-05-05T05:21:29.691Z,100711.16
2023-05-05T05:22:32.848Z,100713.88
2023-05-05T05:23:35.745Z,100707.52
2023-05-05T05:24:38.586Z,100710.05
2023-05-05T05:25:42.052Z,100710.11
2023-05-05T05:26:44.529Z,100714.69
2023-05-05T05:27:52.454Z,100709.30
2023-05-05T05:28:52.258Z,100712.77
2023-05-05T05:29:54.506Z,100709.17
2023-05-05T05:30:57.421Z,100716.23
2023-05-05T05:31:59.767Z,100718.76
2023-05-05T05:33:02.111Z,100717.80
2023-05-05T05:34:05.888Z,100710.69
2023-05-05T05:35:09.328Z,100717.80
2023-05-05T05:36:12.147Z,100718.66
2023-05-05T05:37:14.940Z,100720.55
2023-05-05T05:38:17.185Z,100715.94
2023-05-05T05:39:19.334Z,100721.13
2023-05-05T05:40:21.977Z,100722.13
2023-05-05T05:41:24.210Z,100715.75
2023-05-05T05:42:27.103Z,100709.56
2023-05-05T05:43:29.491Z,100721.00
2023-05-05T05:44:31.532Z,100714.75
2023-05-05T05:45:34.169Z,100719.02
2023-05-05T05:46:37.117Z,100717.98
2023-05-05T05:47:39.535Z,100715.27
2023-05-05T05:48:41.853Z,100716.86
2023-05-05T05:49:44.042Z,100715.13
2023-05-05T05:50:46.697Z,100720.45
2023-05-05T05:51:49.835Z,100718.59
2023-05-05T05:52:52.863Z,100724.59
2023-05-05T05:55:06.404Z,100718.30
2023-05-05T05:56:10.418Z,100723.49
2023-05-05T05:57:13.263Z,100719.90
2023-05-05T05:58:16.058Z,100728.68
2023-05-05T05:59:18.391Z,100730.41
2023-05-05T06:00:20.788Z,100734.86
2023-05-05T06:01:24.896Z,100726.02
2023-05-05T06:02:27.086Z,100733.14
2023-05-05T06:03:29.760Z,100729.61
2023-05-05T06:04:32.626Z,100728.81
2023-05-05T06:05:35.031Z,100727.88
2023-05-05T06:06:37.897Z,100735.06
2023-05-05T06:07:40.391Z,100734.26
2023-05-05T06:08:42.654Z,100727.25
2023-05-05T06:09:45.493Z,100732.56
2023-05-05T06:10:47.688Z,100730.77
2023-05-05T06:11:52.020Z,100728.11
2023-05-05T06:12:55.140Z,100736.16
2023-05-05T06:13:58.011Z,100738.87
2023-05-05T06:15:00.196Z,100732.69
2023-05-05T06:16:02.469Z,100728.23
2023-05-05T06:17:05.078Z,100732.69
2023-05-05T06:18:07.730Z,100731.77
2023-05-05T06:19:10.566Z,100731.59
2023-05-05T06:20:13.401Z,100741.19
2023-05-05T06:21:15.880Z,100737.59
2023-05-05T06:22:17.920Z,100737.46
2023-05-05T06:23:20.099Z,100732.02
2023-05-05T06:24:24.252Z,100728.42
2023-05-05T06:25:26.395Z,100736.17
2023-05-05T06:26:29.068Z,100733.24
2023-05-05T06:27:31.474Z,100724.27
2023-05-05T06:28:33.429Z,100728.48
2023-05-05T06:29:35.539Z,100724.83
2023-05-05T06:30:38.200Z,100730.75
2023-05-05T06:31:40.430Z,100719.80
2023-05-05T06:32:42.426Z,100717.80
2023-05-05T06:33:44.741Z,100721.11
2023-05-05T06:34:46.837Z,100722.67
2023-05-05T06:35:51.147Z,100725.09
2023-05-05T06:36:53.518Z,100723.09
2023-05-05T06:37:56.030Z,100718.45
2023-05-05T06:38:58.586Z,100719.31
2023-05-05T06:40:00.983Z,100719.25
2023-05-05T06:41:03.210Z,100713.78
2023-05-05T06:42:07.512Z,100724.44
2023-05-05T06:43:09.711Z,100719.03
2023-05-05T06:44:14.326Z,100725.30
2023-05-05T06:45:16.558Z,100725.30
2023-05-05T06:46:18.845Z,100715.37
2023-05-05T06:47:21.639Z,100721.56
2023-05-05T06:48:24.290Z,100718.89
2023-05-05T06:49:26.482Z,100729.48
2023-05-05T06:50:28.797Z,100718.03
2023-05-05T06:51:31.842Z,100724.05
2023-05-05T06:52:34.555Z,100722.25
2023-05-05T06:53:37.110Z,100723.98
2023-05-05T06:54:39.154Z,100724.84
2023-05-05T06:55:46.945Z,100723.98
2023-05-05T06:56:49.327Z,100723.11
2023-05-05T06:57:51.258Z,100721.24
2023-05-05T06:58:54.013Z,100725.64
2023-05-05T06:59:56.442Z,100714.91
2023-05-05T07:00:58.759Z,100718.37
2023-05-05T07:02:01.002Z,100719.23
2023-05-05T07:03:03.820Z,100719.09
2023-05-05T07:04:06.680Z,100724.27
2023-05-05T07:05:09.143Z,100719.63
2023-05-05T07:06:12.434Z,100722.16
2023-05-05T07:07:14.582Z,100725.61
2023-05-05T07:08:16.645Z,100731.66
2023-05-05T07:09:19.364Z,100723.48
2023-05-05T07:10:25.470Z,100727.73
2023-05-05T07:11:27.982Z,100728.53
2023-05-05T07:12:30.189Z,100732.92
2023-05-05T07:13:32.961Z,100731.84
2023-05-05T07:14:35.581Z,100733.56
2023-05-05T07:15:40.679Z,100725.50
2023-05-05T07:16:43.517Z,100728.06
2023-05-05T07:17:46.618Z,100726.18
2023-05-05T07:18:48.717Z,100729.49
2023-05-05T07:19:50.781Z,100729.16
2023-05-05T07:20:52.966Z,100731.61
2023-05-05T07:21:55.171Z,100733.27
2023-05-05T07:22:57.199Z,100734.91
2023-05-05T07:23:59.244Z,100731.23
2023-05-05T07:25:04.634Z,100724.86
2023-05-05T07:26:07.142Z,100733.56
2023-05-05T07:27:09.445Z,100721.09
2023-05-05T07:28:11.611Z,100723.77
2023-05-05T07:29:14.265Z,100726.36
2023-05-05T07:30:18.670Z,100728.08
2023-05-05T07:31:21.184Z,100722.59
2023-05-05T07:32:23.859Z,100726.84
2023-05-05T07:33:26.423Z,100731.05
2023-05-05T07:34:28.592Z,100729.17
2023-05-05T07:35:30.905Z,100728.08
2023-05-05T07:36:33.152Z,100728.87
2023-05-05T07:37:35.378Z,100726.13
2023-05-05T07:38:37.910Z,100720.67
2023-05-05T07:39:39.959Z,100719.73
2023-05-05T07:40:42.434Z,100713.45
2023-05-05T07:41:44.600Z,100724.91
2023-05-05T07:42:47.657Z,100718.56
2023-05-05T07:43:49.652Z,100713.94
2023-05-05T07:44:52.251Z,100711.11
2023-05-05T07:45:54.407Z,100710.02
2023-05-05T07:46:57.706Z,100714.17
2023-05-05T07:48:00.754Z,100720.02
2023-05-05T07:49:03.666Z,100712.64
2023-05-05T07:50:07.134Z,100715.94
2023-05-05T07:51:09.691Z,100715.50
2023-05-05T07:53:13.851Z,100711.58
2023-05-05T07:54:07.452Z,100718.03
2023-05-05T07:55:10.194Z,100715.86
2023-05-05T07:56:13.192Z,100706.66
2023-05-05T07:57:15.538Z,100715.30
2023-05-05T07:58:17.736Z,100706.33
2023-05-05T07:59:19.776Z,100716.82
2023-05-05T08:00:21.948Z,100707.00
2023-05-05T08:01:24.113Z,100712.25
2023-05-05T08:02:26.621Z,100714.76
2023-05-05T08:03:29.574Z,100714.59
2023-05-05T08:04:32.043Z,100701.84
2023-05-05T08:05:34.161Z,100696.30
2023-05-05T08:06:36.424Z,100705.09
2023-05-05T08:07:38.571Z,100712.95
2023-05-05T08:08:40.740Z,100713.72
2023-05-05T08:09:43.009Z,100715.45
2023-05-05T08:10:45.177Z,100711.83
2023-05-05T08:11:47.325Z,100708.37
2023-05-05T08:12:49.608Z,100711.91
2023-05-05T08:13:52.352Z,100702.95
2023-05-05T08:14:54.713Z,100710.88
2023-05-05T08:15:56.972Z,100705.63
2023-05-05T08:16:59.631Z,100701.14
2023-05-05T08:18:02.013Z,100707.43
2023-05-05T08:19:09.759Z,100697.69
2023-05-05T08:20:10.019Z,100706.66
2023-05-05T08:21:12.230Z,100705.79
2023-05-05T08:22:14.454Z,100709.23
2023-05-05T08:23:16.607Z,100713.72
2023-05-05T08:24:18.797Z,100704.59
2023-05-05T08:25:20.869Z,100700.85
2023-05-05T08:26:23.027Z,100704.39
2023-05-05T08:27:25.195Z,100707.84
2023-05-05T08:28:27.833Z,100715.94
2023-05-05T08:29:30.031Z,100714.99
2023-05-05T08:30:32.301Z,100713.35
2023-05-05T08:31:36.426Z,100711.45
2023-05-05T08:32:38.664Z,100715.77
2023-05-05T08:33:41.016Z,100719.14
2023-05-05T08:34:43.456Z,100705.59
2023-05-05T08:35:46.075Z,100709.70
2023-05-05T08:36:48.292Z,100717.47
2023-05-05T08:37:51.579Z,100710.17
2023-05-05T08:38:54.938Z,100710.74
2023-05-05T08:39:57.472Z,100709.62
2023-05-05T08:40:59.611Z,100719.20
2023-05-05T08:42:02.686Z,100720.62
2023-05-05T08:43:06.005Z,100706.21
2023-05-05T08:44:08.217Z,100709.58
2023-05-05T08:45:12.101Z,100714.66
2023-05-05T08:46:15.295Z,100720.66
2023-05-05T08:47:17.661Z,100712.38
2023-05-05T08:48:21.972Z,100713.06
2023-05-05T08:49:25.667Z,100714.70
2023-05-05T08:50:29.292Z,100710.95
2023-05-05T08:51:35.187Z,100714.39
2023-05-05T08:52:42.799Z,100715.08
2023-05-05T08:55:23.280Z,100713.78
2023-05-05T08:56:28.724Z,100716.14
2023-05-05T08:57:34.972Z,100709.66
2023-05-05T08:58:37.581Z,100706.80
2023-05-05T08:59:40.997Z,100710.98
2023-05-05T09:00:45.759Z,100708.03
2023-05-05T09:01:48.784Z,100706.98
2023-05-05T09:02:52.516Z,100710.25
2023-05-05T09:03:56.777Z,100705.66
2023-05-05T09:05:00.501Z,100709.94
2023-05-05T09:06:03.476Z,100703.62
2023-05-05T09:07:06.966Z,100701.81
2023-05-05T09:08:13.170Z,100706.03
2023-05-05T09:09:15.383Z,100705.08
2023-05-05T09:10:18.626Z,100703.07
2023-05-05T09:11:20.824Z,100701.03
2023-05-05T09:12:23.028Z,100700.08
2023-05-05T09:13:25.639Z,100700.66
2023-05-05T09:14:28.684Z,100698.75
2023-05-05T09:15:32.099Z,100693.23
2023-05-05T09:16:35.061Z,100693.88
2023-05-05T09:17:38.703Z,100706.99
2023-05-05T09:18:41.106Z,100702.40
2023-05-05T09:20:06.510Z,100695.13
2023-05-05T09:21:25.444Z,100700.30
2023-05-05T09:22:42.707Z,100703.52
2023-05-05T09:25:20.667Z,100695.06
2023-05-05T09:26:23.250Z,100701.67
2023-05-05T09:27:25.407Z,100696.02
2023-05-05T09:28:28.177Z,100699.37
2023-05-05T09:29:30.312Z,100694.64
2023-05-05T09:30:34.106Z,100697.89
2023-05-05T09:31:36.855Z,100699.61
2023-05-05T09:32:50.659Z,100697.89
2023-05-05T09:33:53.397Z,100692.53
2023-05-05T09:35:00.593Z,100693.39
2023-05-05T09:36:02.965Z,100688.13
2023-05-05T09:37:05.232Z,100695.21
2023-05-05T09:38:11.471Z,100697.89
2023-05-05T09:39:19.220Z,100692.53
2023-05-05T09:40:22.177Z,100688.98
2023-05-05T09:41:41.727Z,100682.32
2023-05-05T09:42:44.163Z,100685.64
2023-05-05T09:43:52.380Z,100690.80
2023-05-05T09:44:57.864Z,100680.94
2023-05-05T09:46:06.948Z,100676.44
2023-05-05T09:47:22.104Z,100672.89
2023-05-05T09:49:38.084Z,100679.06
2023-05-05T09:50:44.478Z,100672.41
2023-05-05T09:51:47.457Z,100672.17
2023-05-05T09:52:57.349Z,100680.78
2023-05-05T09:54:00.060Z,100680.59
2023-05-05T09:55:02.993Z,100680.39
2023-05-05T09:56:06.663Z,100676.61
2023-05-05T09:57:10.831Z,100676.52
2023-05-05T09:59:26.765Z,100669.25
2023-05-05T10:00:39.529Z,100674.50
2023-05-05T10:01:41.775Z,100680.82
2023-05-05T10:02:45.264Z,100678.23
2023-05-05T10:03:51.136Z,100678.23
2023-05-05T10:05:11.690Z,100669.23
2023-05-05T10:06:14.713Z,100668.06
2023-05-05T10:07:23.427Z,100671.18
2023-05-05T10:08:28.145Z,100673.56
2023-05-05T10:09:30.811Z,100666.93
2023-05-05T10:10:34.312Z,100671.00
2023-05-05T10:11:37.068Z,100673.51
2023-05-05T10:12:40.456Z,100665.36
2023-05-05T10:13:42.790Z,100667.94
2023-05-05T10:14:45.369Z,100672.00
2023-05-05T10:17:01.126Z,100668.05
2023-05-05T10:18:07.408Z,100672.14
2023-05-05T10:19:11.096Z,100672.77
2023-05-05T10:20:14.715Z,100672.56
2023-05-05T10:21:19.994Z,100670.84
2023-05-05T10:22:23.533Z,100671.94
2023-05-05T10:23:35.162Z,100674.73
2023-05-05T10:24:41.353Z,100668.40
2023-05-05T10:26:58.230Z,100670.84
2023-05-05T10:28:05.026Z,100663.44
2023-05-05T10:29:31.846Z,100668.70
2023-05-05T10:30:37.612Z,100666.57
2023-05-05T10:31:49.099Z,100667.84
2023-05-05T10:33:13.161Z,100665.70
2023-05-05T10:34:08.899Z,100660.98
2023-05-05T10:35:14.814Z,100666.11
2023-05-05T10:36:20.164Z,100660.63
2023-05-05T10:37:22.774Z,100659.66
2023-05-05T10:38:28.509Z,100661.59
2023-05-05T10:39:32.010Z,100657.08
2023-05-05T10:40:34.694Z,100663.31
2023-05-05T10:41:37.834Z,100664.07
2023-05-05T10:42:40.727Z,100663.86
2023-05-05T10:43:43.231Z,100658.48
2023-05-05T10:44:45.770Z,100655.59
2023-05-05T10:45:48.486Z,100661.72
2023-05-05T10:46:51.070Z,100657.06
2023-05-05T10:47:55.042Z,100649.65
2023-05-05T10:49:04.096Z,100647.61
2023-05-05T10:50:19.540Z,100651.91
2023-05-05T10:51:39.414Z,100654.23
2023-05-05T10:52:52.968Z,100648.65
2023-05-05T10:54:22.443Z,100654.78
2023-05-05T10:55:31.204Z,100648.65
2023-05-05T10:56:34.325Z,100651.23
2023-05-05T10:57:43.495Z,100646.93
2023-05-05T10:58:58.961Z,100647.69
2023-05-05T10:59:50.186Z,100637.69
2023-05-05T11:00:52.721Z,100641.77
2023-05-05T11:01:54.945Z,100635.28
2023-05-05T11:04:26.966Z,100632.25
2023-05-05T11:05:29.191Z,100628.64
2023-05-05T11:06:32.100Z,100632.41
2023-05-05T11:07:35.152Z,100628.86
2023-05-05T11:08:43.780Z,100633.37
2023-05-05T11:09:59.821Z,100634.42
2023-05-05T11:11:03.241Z,100630.77
2023-05-05T11:12:05.814Z,100633.37
2023-05-05T11:13:11.539Z,100630.77
2023-05-05T11:14:20.457Z,100624.34
2023-05-05T11:15:32.113Z,100624.98
2023-05-05T11:16:45.928Z,100626.38
2023-05-05T11:17:48.318Z,100618.91
2023-05-05T11:18:50.604Z,100617.83
2023-05-05T11:19:53.233Z,100614.92
2023-05-05T11:21:01.426Z,100612.88
2023-05-05T11:22:03.649Z,100610.08
2023-05-05T11:23:09.453Z,100608.09
2023-05-05T11:24:27.695Z,100611.42
2023-05-05T11:25:40.021Z,100619.27
2023-05-05T11:26:50.340Z,100618.19
2023-05-05T11:28:08.591Z,100618.19
2023-05-05T11:29:11.048Z,100618.41
2023-05-05T11:30:13.871Z,100618.86
2023-05-05T11:31:17.333Z,100623.96
2023-05-05T11:32:19.505Z,100618.31
2023-05-05T11:34:35.417Z,100621.97
2023-05-05T11:35:55.436Z,100614.25
2023-05-05T11:37:01.660Z,100611.34
2023-05-05T11:38:07.129Z,100614.56
2023-05-05T11:39:25.329Z,100619.61
2023-05-05T11:40:32.648Z,100614.88
2023-05-05T11:41:50.789Z,100612.93
2023-05-05T11:43:04.087Z,100607.30
2023-05-05T11:44:14.957Z,100607.08
2023-05-05T11:45:23.865Z,100607.94
2023-05-05T11:46:26.173Z,100605.73
2023-05-05T11:47:30.704Z,100611.22
2023-05-05T11:48:36.944Z,100602.17
2023-05-05T11:49:39.257Z,100604.86
2023-05-05T11:50:42.070Z,100604.34
2023-05-05T11:51:47.782Z,100603.81
2023-05-05T11:52:50.419Z,100604.24
2023-05-05T11:53:52.548Z,100610.05
2023-05-05T11:54:58.282Z,100609.77
2023-05-05T11:56:08.880Z,100609.34
2023-05-05T11:57:11.006Z,100597.95
2023-05-05T11:58:19.868Z,100606.77
2023-05-05T11:59:22.174Z,100602.36
2023-05-05T12:00:34.177Z,100599.45
2023-05-05T12:02:54.556Z,100596.40
2023-05-05T12:03:57.431Z,100606.12
2023-05-05T12:05:00.818Z,100598.05
2023-05-05T12:06:07.275Z,100594.26
2023-05-05T12:07:17.193Z,100600.49
2023-05-05T12:08:19.515Z,100594.26
2023-05-05T12:09:22.643Z,100593.93
2023-05-05T12:10:25.003Z,100593.82
2023-05-05T12:11:27.140Z,100589.95
2023-05-05T12:12:37.747Z,100587.75
2023-05-05T12:13:40.222Z,100587.67
2023-05-05T12:14:52.636Z,100570.36
2023-05-05T12:15:55.148Z,100578.09
2023-05-05T12:17:08.772Z,100579.55
2023-05-05T12:19:27.298Z,100566.56
2023-05-05T12:20:31.727Z,100567.27
2023-05-05T12:21:34.624Z,100564.36
2023-05-05T12:22:37.541Z,100568.51
2023-05-05T12:23:40.172Z,100571.08
2023-05-05T12:24:42.790Z,100571.72
2023-05-05T12:25:45.369Z,100564.02
2023-05-05T12:26:47.515Z,100560.88
2023-05-05T12:27:52.959Z,100565.80
2023-05-05T12:28:56.160Z,100563.71
2023-05-05T12:30:13.799Z,100562.51
2023-05-05T12:31:16.667Z,100567.31
2023-05-05T12:32:26.161Z,100569.52
2023-05-05T12:33:28.537Z,100564.77
2023-05-05T12:34:31.480Z,100568.20
2023-05-05T12:35:34.188Z,100565.39
2023-05-05T12:36:37.807Z,100564.27
2023-05-05T12:37:40.541Z,100558.77
2023-05-05T12:38:42.687Z,100557.80
2023-05-05T12:39:44.957Z,100570.05
2023-05-05T12:40:50.538Z,100567.98
2023-05-05T12:41:56.333Z,100564.42
2023-05-05T12:42:59.133Z,100552.33
2023-05-05T12:44:01.845Z,100555.53